Time;durP1;ratioP1;P1;durP2;ratioP2;P2;SDS_P1;SDS_P2;PMS_P1;PMS_P2;Temp;Humidity;BMP_temperature;BMP_pressure;BME280_temperature;BME280_humidity;BME280_pressure;Samples;Min_cycle;Max_cycle;Signal;HPM_P1;HPM_P2
2022/07/31 00:01:12;;;;;;;;;;;18.50;73.50;;;;;;5010991;28;19921;-77
2022/07/31 00:03:38;;;;;;;;;;;18.40;74.90;;;;;;5008698;28;19917;-77
2022/07/31 00:06:05;;;;;;;;;;;18.50;76.10;;;;;;5003679;28;20274;-76
2022/07/31 00:08:31;;;;;;;;;;;18.50;77.00;;;;;;5004859;28;19972;-77
2022/07/31 00:10:57;;;;;;;;;;;18.50;78.50;;;;;;5006252;28;19924;-80
2022/07/31 00:13:23;;;;;;;;;;;18.60;77.90;;;;;;5010778;28;19918;-77
2022/07/31 00:15:49;;;;;;;;;;;18.70;77.80;;;;;;5012891;28;19910;-77
2022/07/31 00:18:15;;;;;;;;;;;18.70;77.30;;;;;;5007099;28;19929;-76
2022/07/31 00:20:41;;;;;;;;;;;18.70;77.80;;;;;;5012520;28;19924;-78
2022/07/31 00:23:07;;;;;;;;;;;18.70;77.60;;;;;;5010593;28;19916;-77
2022/07/31 00:25:33;;;;;;;;;;;18.60;77.80;;;;;;5008622;28;19913;-76
2022/07/31 00:27:58;;;;;;;;;;;18.50;78.70;;;;;;5008133;28;20441;-78
2022/07/31 00:30:24;;;;;;;;;;;18.50;80.30;;;;;;5003856;28;20028;-76
2022/07/31 00:32:50;;;;;;;;;;;18.40;81.40;;;;;;5011826;28;19954;-76
2022/07/31 00:35:16;;;;;;;;;;;18.40;81.10;;;;;;5010470;28;20061;-77
2022/07/31 00:37:46;;;;;;;;;;;18.50;81.00;;;;;;5011218;28;19924;-77
2022/07/31 00:40:14;;;;;;;;;;;18.50;78.20;;;;;;5010895;28;19925;-77
2022/07/31 00:42:40;;;;;;;;;;;18.60;78.00;;;;;;5015297;28;19913;-76
2022/07/31 00:45:06;;;;;;;;;;;18.60;79.60;;;;;;5013313;28;19909;-77
2022/07/31 00:47:32;;;;;;;;;;;18.70;79.40;;;;;;5012714;28;19913;-77
2022/07/31 00:49:58;;;;;;;;;;;18.70;79.10;;;;;;5007963;28;19910;-78
2022/07/31 00:52:25;;;;;;;;;;;18.50;80.30;;;;;;5010747;28;20286;-76
2022/07/31 00:54:51;;;;;;;;;;;18.40;81.80;;;;;;5009471;28;19921;-77
2022/07/31 00:57:17;;;;;;;;;;;18.40;83.10;;;;;;5011037;28;19901;-77
2022/07/31 00:59:43;;;;;;;;;;;18.50;82.70;;;;;;5012281;28;19909;-77
2022/07/31 01:02:09;;;;;;;;;;;18.50;82.00;;;;;;5012981;28;19914;-77
2022/07/31 01:04:35;;;;;;;;;;;18.50;81.70;;;;;;5015057;28;19910;-76
2022/07/31 01:07:02;;;;;;;;;;;18.40;82.20;;;;;;5015507;28;19909;-77
2022/07/31 01:09:28;;;;;;;;;;;18.30;84.20;;;;;;5016507;28;19909;-77
2022/07/31 01:11:57;;;;;;;;;;;18.30;82.70;;;;;;5010327;28;19913;-78
2022/07/31 01:14:24;;;;;;;;;;;18.30;82.40;;;;;;5012413;28;20263;-76
2022/07/31 01:16:52;;;;;;;;;;;18.30;81.80;;;;;;5011595;28;19921;-76
2022/07/31 01:19:27;;;;;;;;;;;18.20;82.00;;;;;;5009769;28;19912;-76
2022/07/31 01:21:58;;;;;;;;;;;18.10;83.80;;;;;;4998895;28;19916;-77
2022/07/31 01:24:30;;;;;;;;;;;18.10;83.60;;;;;;5009581;28;19985;-77
2022/07/31 01:27:19;;;;;;;;;;;18.00;83.20;;;;;;5011469;28;19909;-76
2022/07/31 01:29:48;;;;;;;;;;;17.70;84.00;;;;;;5014465;28;19909;-79
2022/07/31 01:32:17;;;;;;;;;;;17.50;85.30;;;;;;5014498;28;20467;-76
2022/07/31 01:34:59;;;;;;;;;;;17.40;87.40;;;;;;5006401;28;20012;-80
2022/07/31 01:37:57;;;;;;;;;;;17.20;88.90;;;;;;5012930;28;19909;-77
2022/07/31 01:40:26;;;;;;;;;;;17.10;90.40;;;;;;5000082;28;20318;-77
2022/07/31 01:42:55;;;;;;;;;;;17.10;90.50;;;;;;5009019;28;19909;-76
2022/07/31 01:45:23;;;;;;;;;;;17.20;90.20;;;;;;5009686;28;19909;-77
2022/07/31 01:47:50;;;;;;;;;;;17.20;90.50;;;;;;5004561;28;19913;-76
2022/07/31 01:50:17;;;;;;;;;;;17.00;90.70;;;;;;4995055;28;20069;-76
2022/07/31 01:52:43;;;;;;;;;;;16.90;91.30;;;;;;5010666;28;19929;-76
2022/07/31 01:55:12;;;;;;;;;;;16.80;91.70;;;;;;5010631;28;19914;-77
2022/07/31 01:57:40;;;;;;;;;;;16.70;92.00;;;;;;4996558;28;20398;-76
2022/07/31 02:00:07;;;;;;;;;;;16.60;92.20;;;;;;5005508;28;20274;-78
2022/07/31 02:02:41;;;;;;;;;;;16.70;93.70;;;;;;5013770;28;19921;-76
2022/07/31 02:05:09;;;;;;;;;;;16.80;94.10;;;;;;5007347;28;19909;-77
2022/07/31 02:07:36;;;;;;;;;;;16.80;92.50;;;;;;4997881;28;20271;-76
2022/07/31 02:10:03;;;;;;;;;;;16.80;92.30;;;;;;5012736;28;19913;-78
2022/07/31 02:12:32;;;;;;;;;;;16.70;92.30;;;;;;5013883;28;19910;-77
2022/07/31 02:14:59;;;;;;;;;;;16.70;92.30;;;;;;5017921;28;19913;-84
2022/07/31 02:17:25;;;;;;;;;;;16.60;92.40;;;;;;5023043;28;19910;-76
2022/07/31 02:20:17;;;;;;;;;;;16.50;93.00;;;;;;5011369;28;19905;-80
2022/07/31 02:22:44;;;;;;;;;;;16.20;93.60;;;;;;5008389;28;20389;-76
2022/07/31 02:25:10;;;;;;;;;;;16.10;94.20;;;;;;4993976;28;20290;-76
2022/07/31 02:27:38;;;;;;;;;;;16.00;94.50;;;;;;5008441;28;19910;-77
2022/07/31 02:30:04;;;;;;;;;;;15.90;94.50;;;;;;5008926;28;19924;-76
2022/07/31 02:32:31;;;;;;;;;;;15.80;94.80;;;;;;5012203;28;19929;-76
2022/07/31 02:34:59;;;;;;;;;;;15.80;94.90;;;;;;4995452;28;19921;-83
2022/07/31 02:37:25;;;;;;;;;;;15.80;95.30;;;;;;5004467;28;19910;-76
2022/07/31 02:39:52;;;;;;;;;;;15.70;95.40;;;;;;5008186;28;19910;-77
2022/07/31 02:42:19;;;;;;;;;;;15.70;95.70;;;;;;5007413;28;19905;-76
2022/07/31 02:44:46;;;;;;;;;;;15.70;96.30;;;;;;5011588;28;19909;-79
2022/07/31 02:47:13;;;;;;;;;;;15.80;97.10;;;;;;5008897;28;19909;-77
2022/07/31 02:49:40;;;;;;;;;;;15.90;96.10;;;;;;5005906;28;19913;-77
2022/07/31 02:52:07;;;;;;;;;;;15.90;95.50;;;;;;4995208;28;20355;-76
2022/07/31 02:54:35;;;;;;;;;;;16.00;95.70;;;;;;5002267;28;19917;-76
2022/07/31 02:57:02;;;;;;;;;;;16.00;95.50;;;;;;5006971;28;20278;-76
2022/07/31 02:59:28;;;;;;;;;;;16.00;95.40;;;;;;5012382;28;19916;-76
2022/07/31 03:01:58;;;;;;;;;;;15.90;95.70;;;;;;5009794;28;19920;-83
2022/07/31 03:04:25;;;;;;;;;;;15.70;96.20;;;;;;5005672;28;19913;-75
2022/07/31 03:06:52;;;;;;;;;;;15.60;96.50;;;;;;5006627;28;20007;-76
2022/07/31 03:09:18;;;;;;;;;;;15.60;96.80;;;;;;5007676;28;19912;-76
2022/07/31 03:11:46;;;;;;;;;;;15.50;97.20;;;;;;4994481;28;19924;-76
2022/07/31 03:14:12;;;;;;;;;;;15.40;97.60;;;;;;5005037;28;19913;-75
2022/07/31 03:16:38;;;;;;;;;;;15.40;97.80;;;;;;4994122;28;20409;-77
2022/07/31 03:19:07;;;;;;;;;;;15.40;98.40;;;;;;5010832;28;19909;-76
2022/07/31 03:21:33;;;;;;;;;;;15.40;98.70;;;;;;5004995;28;19909;-77
2022/07/31 03:23:59;;;;;;;;;;;15.40;99.00;;;;;;5006831;28;19913;-82
2022/07/31 03:26:26;;;;;;;;;;;15.40;99.10;;;;;;4993769;28;19913;-79
2022/07/31 03:28:52;;;;;;;;;;;15.40;99.90;;;;;;5010618;28;19909;-76
2022/07/31 03:31:19;;;;;;;;;;;15.70;99.00;;;;;;5005395;28;19917;-77
2022/07/31 03:33:45;;;;;;;;;;;15.70;98.80;;;;;;4975944;28;19913;-77
2022/07/31 03:36:13;;;;;;;;;;;15.60;99.00;;;;;;4982735;28;19913;-77
2022/07/31 03:38:40;;;;;;;;;;;15.60;99.60;;;;;;4990753;28;19921;-77
2022/07/31 03:41:06;;;;;;;;;;;15.70;98.80;;;;;;5002955;28;19909;-76
2022/07/31 03:43:33;;;;;;;;;;;15.70;98.30;;;;;;4991634;28;19957;-78
2022/07/31 03:45:59;;;;;;;;;;;15.70;98.40;;;;;;5007496;28;19921;-83
2022/07/31 03:48:26;;;;;;;;;;;15.70;98.80;;;;;;4987547;28;19905;-81
2022/07/31 03:50:53;;;;;;;;;;;15.70;98.80;;;;;;4990871;28;20275;-76
2022/07/31 03:53:19;;;;;;;;;;;15.70;98.80;;;;;;4968735;28;19905;-76
2022/07/31 03:55:46;;;;;;;;;;;15.80;98.70;;;;;;4985789;28;19914;-75
2022/07/31 03:58:12;;;;;;;;;;;15.80;98.20;;;;;;4990233;28;20374;-76
2022/07/31 04:00:39;;;;;;;;;;;15.80;97.80;;;;;;5003045;28;19918;-76
2022/07/31 04:03:09;;;;;;;;;;;15.70;97.80;;;;;;5002079;28;19914;-76
2022/07/31 04:05:54;;;;;;;;;;;15.80;98.10;;;;;;4974390;28;19910;-76
2022/07/31 04:08:20;;;;;;;;;;;15.90;97.90;;;;;;4988597;28;19913;-76
2022/07/31 04:10:47;;;;;;;;;;;15.90;97.90;;;;;;4988014;28;19956;-76
2022/07/31 04:13:15;;;;;;;;;;;15.90;98.00;;;;;;4989732;28;19921;-76
2022/07/31 04:15:41;;;;;;;;;;;16.10;98.50;;;;;;4969326;28;19972;-76
2022/07/31 04:18:07;;;;;;;;;;;16.20;97.90;;;;;;4987778;28;19917;-76
2022/07/31 04:20:38;;;;;;;;;;;16.30;97.70;;;;;;5003720;28;19913;-76
2022/07/31 04:23:04;;;;;;;;;;;16.30;97.50;;;;;;4985175;28;19909;-76
2022/07/31 04:25:49;;;;;;;;;;;16.30;97.30;;;;;;4990216;28;19960;-76
2022/07/31 04:28:24;;;;;;;;;;;16.40;97.30;;;;;;4983468;28;20367;-77
2022/07/31 04:30:50;;;;;;;;;;;16.40;97.20;;;;;;4994648;28;19929;-76
2022/07/31 04:33:17;;;;;;;;;;;16.40;97.10;;;;;;5002210;28;19913;-77
2022/07/31 04:35:43;;;;;;;;;;;16.50;97.10;;;;;;5009319;28;19920;-75
2022/07/31 04:38:10;;;;;;;;;;;16.60;97.00;;;;;;5005870;28;19913;-75
2022/07/31 04:40:38;;;;;;;;;;;16.70;97.00;;;;;;5005353;28;20342;-76
2022/07/31 04:43:04;;;;;;;;;;;16.70;96.90;;;;;;5005345;28;19963;-77
2022/07/31 04:45:30;;;;;;;;;;;16.90;96.70;;;;;;5005608;28;19917;-76
2022/07/31 04:47:56;;;;;;;;;;;17.00;96.50;;;;;;4994247;28;19916;-77
2022/07/31 04:50:22;;;;;;;;;;;17.10;96.60;;;;;;4993361;28;19910;-77
2022/07/31 04:52:56;;;;;;;;;;;17.40;95.90;;;;;;5008184;28;19909;-75
2022/07/31 04:55:23;;;;;;;;;;;17.60;95.30;;;;;;5006932;28;19917;-75
2022/07/31 04:57:49;;;;;;;;;;;17.80;94.80;;;;;;4989894;28;19917;-74
2022/07/31 05:00:15;;;;;;;;;;;18.10;94.40;;;;;;5008706;28;19909;-74
2022/07/31 05:02:41;;;;;;;;;;;18.20;94.30;;;;;;5006925;28;19929;-75
2022/07/31 05:05:09;;;;;;;;;;;18.50;93.70;;;;;;5005361;28;19916;-75
2022/07/31 05:07:38;;;;;;;;;;;18.60;93.40;;;;;;4993417;28;19913;-75
2022/07/31 05:13:09;;;;;;;;;;;18.60;93.20;;;;;;5006215;28;19937;-77
2022/07/31 05:15:35;;;;;;;;;;;18.60;93.30;;;;;;5006351;28;19917;-77
2022/07/31 05:18:01;;;;;;;;;;;18.60;93.50;;;;;;5005098;28;19916;-85
2022/07/31 05:21:03;;;;;;;;;;;18.50;93.50;;;;;;4980252;28;20259;-82
2022/07/31 05:23:50;;;;;;;;;;;18.60;93.60;;;;;;4986642;28;19909;-75
2022/07/31 05:26:24;;;;;;;;;;;18.70;94.20;;;;;;5005631;28;20260;-75
2022/07/31 05:28:52;;;;;;;;;;;18.70;93.70;;;;;;4996112;28;19916;-75
2022/07/31 05:31:19;;;;;;;;;;;18.80;93.80;;;;;;5007839;28;19922;-74
2022/07/31 05:33:46;;;;;;;;;;;18.90;93.90;;;;;;5012357;28;19917;-76
2022/07/31 05:36:12;;;;;;;;;;;18.90;94.00;;;;;;5006642;28;20268;-75
2022/07/31 05:38:39;;;;;;;;;;;19.10;94.10;;;;;;5011113;28;19960;-76
2022/07/31 05:41:23;;;;;;;;;;;19.20;94.00;;;;;;5005137;28;19997;-74
2022/07/31 05:44:12;;;;;;;;;;;19.30;93.70;;;;;;5005209;28;19916;-75
2022/07/31 05:46:41;;;;;;;;;;;19.50;93.50;;;;;;5001094;28;19921;-76
2022/07/31 05:49:07;;;;;;;;;;;19.70;93.00;;;;;;5010385;28;19909;-75
2022/07/31 05:51:33;;;;;;;;;;;19.90;92.30;;;;;;5006929;28;19916;-75
2022/07/31 05:53:59;;;;;;;;;;;20.10;92.30;;;;;;5008721;28;20298;-76
2022/07/31 05:56:44;;;;;;;;;;;20.20;92.50;;;;;;5007174;28;19917;-76
2022/07/31 05:59:11;;;;;;;;;;;20.30;91.70;;;;;;5008168;28;19909;-77
2022/07/31 06:01:40;;;;;;;;;;;20.30;91.00;;;;;;5012675;28;19917;-80
2022/07/31 06:04:06;;;;;;;;;;;20.40;90.80;;;;;;4996806;28;19909;-77
2022/07/31 06:06:39;;;;;;;;;;;20.30;89.70;;;;;;5012246;28;20306;-77
2022/07/31 06:09:05;;;;;;;;;;;20.30;88.80;;;;;;5008598;28;20260;-77
2022/07/31 06:11:36;;;;;;;;;;;20.30;87.90;;;;;;5008308;28;20343;-76
2022/07/31 06:14:02;;;;;;;;;;;20.30;86.60;;;;;;5004921;28;19917;-81
2022/07/31 06:16:39;;;;;;;;;;;20.40;86.60;;;;;;5004847;28;19909;-77
2022/07/31 06:19:05;;;;;;;;;;;20.50;84.30;;;;;;5008990;28;19920;-78
2022/07/31 06:21:31;;;;;;;;;;;20.60;84.30;;;;;;4993871;28;20271;-77
2022/07/31 06:23:57;;;;;;;;;;;20.70;81.00;;;;;;5009115;28;19916;-77
2022/07/31 06:26:38;;;;;;;;;;;20.70;80.80;;;;;;5004093;28;19913;-77
2022/07/31 06:29:04;;;;;;;;;;;20.70;80.90;;;;;;5008375;28;19910;-84
2022/07/31 06:31:30;;;;;;;;;;;20.90;80.90;;;;;;4997117;28;19928;-76
2022/07/31 06:33:58;;;;;;;;;;;20.90;78.10;;;;;;4995147;28;20351;-76
2022/07/31 06:36:31;;;;;;;;;;;21.10;77.90;;;;;;4994567;28;19925;-76
2022/07/31 06:39:00;;;;;;;;;;;21.10;76.70;;;;;;5009828;28;19913;-78
2022/07/31 06:41:46;;;;;;;;;;;21.10;75.90;;;;;;5013555;28;19916;-77
2022/07/31 06:44:27;;;;;;;;;;;21.10;76.50;;;;;;5004995;28;19913;-79
2022/07/31 06:47:24;;;;;;;;;;;21.10;75.30;;;;;;4990277;28;19913;-78
2022/07/31 06:50:11;;;;;;;;;;;21.00;74.10;;;;;;4997134;28;19909;-79
2022/07/31 06:52:39;;;;;;;;;;;21.00;74.10;;;;;;5001398;28;19929;-76
2022/07/31 06:55:06;;;;;;;;;;;21.00;72.90;;;;;;4987111;28;19918;-83
2022/07/31 06:57:32;;;;;;;;;;;21.10;73.20;;;;;;4993220;28;20260;-76
2022/07/31 06:59:59;;;;;;;;;;;21.20;73.50;;;;;;4984293;28;19909;-76
2022/07/31 07:02:25;;;;;;;;;;;21.50;73.20;;;;;;4984052;28;19910;-76
2022/07/31 07:04:52;;;;;;;;;;;22.00;72.50;;;;;;4986387;28;20616;-77
2022/07/31 07:07:18;;;;;;;;;;;22.50;69.90;;;;;;4988849;28;19910;-77
2022/07/31 07:09:47;;;;;;;;;;;22.90;68.00;;;;;;4985350;28;19910;-77
2022/07/31 07:12:17;;;;;;;;;;;23.40;66.90;;;;;;4988335;28;19933;-77
2022/07/31 07:14:46;;;;;;;;;;;23.60;65.20;;;;;;4990334;28;19918;-77
2022/07/31 07:17:12;;;;;;;;;;;23.50;64.50;;;;;;4985912;28;20385;-77
2022/07/31 07:19:38;;;;;;;;;;;23.40;64.40;;;;;;4990892;28;19913;-77
2022/07/31 07:22:04;;;;;;;;;;;23.40;65.50;;;;;;5000008;28;20291;-85
2022/07/31 07:24:30;;;;;;;;;;;23.10;63.90;;;;;;4996811;28;19909;-78
2022/07/31 07:27:02;;;;;;;;;;;22.70;64.30;;;;;;4996646;28;19917;-78
2022/07/31 07:29:29;;;;;;;;;;;22.70;64.50;;;;;;4995064;28;19921;-77
2022/07/31 07:31:55;;;;;;;;;;;22.90;64.10;;;;;;5010355;28;19940;-77
2022/07/31 07:34:21;;;;;;;;;;;23.30;63.80;;;;;;5018760;28;19922;-77
2022/07/31 07:36:48;;;;;;;;;;;24.20;60.90;;;;;;5025778;28;19916;-78
2022/07/31 07:39:21;;;;;;;;;;;25.10;59.40;;;;;;5027262;28;19909;-78
2022/07/31 07:41:47;;;;;;;;;;;25.20;58.30;;;;;;5009597;28;20282;-77
2022/07/31 07:44:14;;;;;;;;;;;25.50;56.50;;;;;;5015586;28;20363;-78
2022/07/31 07:46:40;;;;;;;;;;;25.30;57.80;;;;;;5011561;28;20270;-78
2022/07/31 07:49:07;;;;;;;;;;;25.50;59.70;;;;;;5020011;28;19910;-83
2022/07/31 07:51:59;;;;;;;;;;;26.80;56.10;;;;;;5002872;28;19921;-79
2022/07/31 07:54:37;;;;;;;;;;;27.90;53.60;;;;;;5011057;28;19918;-79
2022/07/31 07:57:21;;;;;;;;;;;28.70;50.30;;;;;;5012828;28;19913;-77
2022/07/31 08:00:07;;;;;;;;;;;28.20;50.60;;;;;;5008694;28;19913;-83
2022/07/31 08:02:59;;;;;;;;;;;26.70;52.70;;;;;;5002279;28;19913;-78
2022/07/31 08:05:25;;;;;;;;;;;27.50;52.00;;;;;;5021779;28;19916;-77
2022/07/31 08:07:51;;;;;;;;;;;28.60;49.50;;;;;;5024336;28;19928;-76
2022/07/31 08:10:39;;;;;;;;;;;26.90;50.50;;;;;;5019690;28;19939;-78
2022/07/31 08:13:10;;;;;;;;;;;27.50;52.10;;;;;;5025343;28;19914;-79
2022/07/31 08:15:59;;;;;;;;;;;28.50;49.70;;;;;;4999116;28;19921;-79
2022/07/31 08:18:30;;;;;;;;;;;27.80;49.60;;;;;;5020698;28;19920;-79
2022/07/31 08:20:56;;;;;;;;;;;27.40;51.70;;;;;;5007671;28;19980;-77
2022/07/31 08:23:22;;;;;;;;;;;27.00;50.60;;;;;;5021113;28;19929;-77
2022/07/31 08:25:49;;;;;;;;;;;27.70;50.20;;;;;;5028181;28;20371;-79
2022/07/31 08:28:15;;;;;;;;;;;27.30;49.20;;;;;;5026589;28;19916;-77
2022/07/31 08:30:42;;;;;;;;;;;26.70;49.40;;;;;;5023600;28;20397;-79
2022/07/31 08:33:09;;;;;;;;;;;26.50;50.30;;;;;;5018512;28;20401;-78
2022/07/31 08:35:38;;;;;;;;;;;26.00;50.00;;;;;;5021440;28;19925;-76
2022/07/31 08:38:05;;;;;;;;;;;25.90;50.90;;;;;;5023176;28;19905;-83
2022/07/31 08:40:39;;;;;;;;;;;27.20;51.00;;;;;;5018559;28;19909;-78
2022/07/31 08:43:05;;;;;;;;;;;28.60;48.60;;;;;;5025783;28;19920;-83
2022/07/31 08:45:31;;;;;;;;;;;28.30;48.60;;;;;;5009698;28;19909;-77
2022/07/31 08:48:20;;;;;;;;;;;28.30;48.50;;;;;;5026001;28;19909;-78
2022/07/31 08:50:47;;;;;;;;;;;28.40;47.60;;;;;;5022456;28;19910;-78
2022/07/31 08:53:34;;;;;;;;;;;28.50;48.40;;;;;;4999406;28;19917;-77
2022/07/31 08:56:06;;;;;;;;;;;28.00;46.80;;;;;;5020875;28;20363;-82
2022/07/31 08:58:32;;;;;;;;;;;27.90;48.60;;;;;;5006969;28;19909;-78
2022/07/31 09:00:58;;;;;;;;;;;28.40;48.10;;;;;;5012151;28;19913;-79
2022/07/31 09:03:25;;;;;;;;;;;28.60;47.50;;;;;;5025816;28;19909;-79
2022/07/31 09:05:57;;;;;;;;;;;28.40;46.90;;;;;;5023132;28;19932;-78
2022/07/31 09:08:24;;;;;;;;;;;28.00;46.90;;;;;;5028281;28;20623;-78
2022/07/31 09:11:05;;;;;;;;;;;27.80;47.10;;;;;;5022974;28;19910;-78
2022/07/31 09:13:36;;;;;;;;;;;27.70;46.90;;;;;;5029659;28;20279;-76
2022/07/31 09:16:06;;;;;;;;;;;27.40;47.10;;;;;;5028207;28;19917;-84
2022/07/31 09:18:33;;;;;;;;;;;27.50;46.80;;;;;;5014644;28;19910;-77
2022/07/31 09:21:06;;;;;;;;;;;27.70;46.30;;;;;;5013845;28;19920;-81
2022/07/31 09:23:42;;;;;;;;;;;27.90;47.40;;;;;;5012062;28;19909;-79
2022/07/31 09:26:08;;;;;;;;;;;28.00;47.20;;;;;;5011845;28;19910;-85
2022/07/31 09:28:35;;;;;;;;;;;28.20;46.20;;;;;;5028715;28;19910;-80
2022/07/31 09:31:03;;;;;;;;;;;28.20;45.60;;;;;;5013008;28;19925;-79
2022/07/31 09:33:47;;;;;;;;;;;27.80;46.40;;;;;;5008572;28;19917;-78
2022/07/31 09:36:32;;;;;;;;;;;28.20;45.80;;;;;;5006056;28;19913;-78
2022/07/31 09:39:14;;;;;;;;;;;28.70;45.60;;;;;;5025055;28;20274;-86
2022/07/31 09:42:19;;;;;;;;;;;29.10;45.10;;;;;;4999285;28;19918;-79
2022/07/31 09:44:57;;;;;;;;;;;30.30;44.10;;;;;;4993452;28;20282;-78
2022/07/31 09:47:25;;;;;;;;;;;30.30;44.80;;;;;;5013344;28;19917;-78
2022/07/31 09:49:57;;;;;;;;;;;30.40;44.30;;;;;;5025174;28;19910;-77
2022/07/31 09:52:24;;;;;;;;;;;30.10;44.80;;;;;;5012423;28;19932;-77
2022/07/31 09:54:59;;;;;;;;;;;29.60;44.80;;;;;;5011388;28;19921;-77
2022/07/31 09:57:27;;;;;;;;;;;29.30;45.20;;;;;;5013312;28;19905;-77
2022/07/31 09:59:55;;;;;;;;;;;29.20;46.10;;;;;;5030608;28;19909;-76
2022/07/31 10:02:24;;;;;;;;;;;29.10;45.50;;;;;;5007458;28;19920;-78
2022/07/31 10:04:52;;;;;;;;;;;29.10;46.40;;;;;;5011495;28;20362;-77
2022/07/31 10:07:21;;;;;;;;;;;29.00;46.60;;;;;;5028317;28;19909;-77
2022/07/31 10:09:47;;;;;;;;;;;29.10;46.50;;;;;;5023999;28;19909;-77
2022/07/31 10:12:19;;;;;;;;;;;29.20;47.00;;;;;;5029547;28;20247;-79
2022/07/31 10:14:45;;;;;;;;;;;29.30;46.40;;;;;;5036478;28;19917;-77
2022/07/31 10:17:13;;;;;;;;;;;29.20;46.90;;;;;;5018842;28;19916;-77
2022/07/31 10:20:12;;;;;;;;;;;29.10;46.90;;;;;;5023909;28;19909;-84
2022/07/31 10:22:49;;;;;;;;;;;29.10;47.00;;;;;;5023783;28;19913;-77
2022/07/31 10:25:21;;;;;;;;;;;28.80;47.00;;;;;;5027833;28;19909;-76
2022/07/31 10:27:48;;;;;;;;;;;28.80;47.70;;;;;;5010546;28;19917;-76
2022/07/31 10:30:15;;;;;;;;;;;28.80;47.80;;;;;;5012125;28;19925;-76
2022/07/31 10:32:50;;;;;;;;;;;28.60;47.60;;;;;;5010328;28;19913;-80
2022/07/31 10:35:25;;;;;;;;;;;28.90;50.10;;;;;;5005900;28;19917;-77
2022/07/31 10:38:10;;;;;;;;;;;28.60;47.60;;;;;;5013993;28;20294;-82
2022/07/31 10:41:08;;;;;;;;;;;28.20;49.00;;;;;;5008930;28;20367;-76
2022/07/31 10:43:42;;;;;;;;;;;29.00;48.30;;;;;;5028061;28;19909;-77
2022/07/31 10:46:36;;;;;;;;;;;29.20;48.20;;;;;;5026098;28;19909;-77
2022/07/31 10:49:15;;;;;;;;;;;29.40;47.80;;;;;;5024063;28;19913;-76
2022/07/31 10:51:58;;;;;;;;;;;29.40;48.20;;;;;;5022453;28;19910;-76
2022/07/31 10:54:59;;;;;;;;;;;29.60;48.20;;;;;;5004955;28;19917;-77
2022/07/31 10:57:48;;;;;;;;;;;29.60;47.70;;;;;;5013631;28;20367;-77
2022/07/31 11:00:41;;;;;;;;;;;29.70;47.50;;;;;;5002801;28;20366;-77
2022/07/31 11:03:37;;;;;;;;;;;29.80;47.60;;;;;;5007636;28;19920;-77
2022/07/31 11:06:16;;;;;;;;;;;30.20;47.80;;;;;;5020489;28;19909;-77
2022/07/31 11:09:08;;;;;;;;;;;30.40;46.80;;;;;;5011942;28;19913;-84
2022/07/31 11:11:58;;;;;;;;;;;30.50;47.60;;;;;;5013571;28;19916;-77
2022/07/31 11:14:45;;;;;;;;;;;30.20;47.30;;;;;;5021172;28;19924;-78
2022/07/31 11:17:35;;;;;;;;;;;30.20;46.90;;;;;;5006309;28;19906;-77
2022/07/31 11:20:24;;;;;;;;;;;30.10;47.10;;;;;;5012448;28;19909;-77
2022/07/31 11:23:02;;;;;;;;;;;30.00;46.60;;;;;;5004423;28;20268;-77
2022/07/31 11:25:29;;;;;;;;;;;30.00;46.60;;;;;;5010008;28;19981;-77
2022/07/31 11:28:17;;;;;;;;;;;30.00;46.90;;;;;;5016306;28;19909;-77
2022/07/31 11:30:52;;;;;;;;;;;30.10;46.50;;;;;;5011021;28;19933;-76
2022/07/31 11:33:28;;;;;;;;;;;30.00;46.50;;;;;;5013051;28;19910;-80
2022/07/31 11:35:54;;;;;;;;;;;29.80;47.80;;;;;;5009913;28;19925;-80
2022/07/31 11:38:25;;;;;;;;;;;30.30;47.60;;;;;;5007449;28;19913;-77
2022/07/31 11:40:51;;;;;;;;;;;30.40;47.20;;;;;;5013035;28;19916;-77
2022/07/31 11:43:17;;;;;;;;;;;30.70;46.50;;;;;;5006141;28;19980;-76
2022/07/31 11:45:48;;;;;;;;;;;30.80;45.80;;;;;;5007136;28;19909;-76
2022/07/31 11:48:15;;;;;;;;;;;30.40;46.50;;;;;;5011877;28;19917;-76
2022/07/31 11:50:41;;;;;;;;;;;29.90;46.80;;;;;;5006356;28;19914;-77
2022/07/31 11:53:07;;;;;;;;;;;29.90;47.80;;;;;;5012526;28;20358;-79
2022/07/31 11:55:43;;;;;;;;;;;30.60;46.60;;;;;;5010366;28;19918;-78
2022/07/31 11:58:10;;;;;;;;;;;30.40;46.90;;;;;;5002744;28;20369;-81
2022/07/31 12:00:36;;;;;;;;;;;30.30;46.40;;;;;;5005349;28;19910;-77
2022/07/31 12:03:02;;;;;;;;;;;30.30;45.90;;;;;;5007196;28;19917;-79
2022/07/31 12:05:28;;;;;;;;;;;30.20;46.60;;;;;;5011452;28;19916;-79
2022/07/31 12:07:54;;;;;;;;;;;30.40;47.60;;;;;;5008581;28;19909;-79
2022/07/31 12:10:21;;;;;;;;;;;31.20;46.80;;;;;;5009270;28;20362;-81
2022/07/31 12:12:47;;;;;;;;;;;31.70;45.00;;;;;;5006336;28;19917;-78
2022/07/31 12:15:17;;;;;;;;;;;31.70;44.40;;;;;;5007153;28;19922;-78
2022/07/31 12:17:44;;;;;;;;;;;31.50;45.40;;;;;;5000658;28;19910;-78
2022/07/31 12:20:10;;;;;;;;;;;31.70;45.10;;;;;;5002722;28;19910;-83
2022/07/31 12:22:36;;;;;;;;;;;31.60;45.00;;;;;;5006523;28;19909;-79
2022/07/31 12:25:05;;;;;;;;;;;31.80;44.50;;;;;;5006812;28;19932;-78
2022/07/31 12:27:31;;;;;;;;;;;31.80;45.00;;;;;;5005280;28;20382;-82
2022/07/31 12:29:57;;;;;;;;;;;31.60;44.30;;;;;;5009845;28;19917;-78
2022/07/31 12:32:26;;;;;;;;;;;31.20;44.90;;;;;;5011464;28;19913;-77
2022/07/31 12:35:00;;;;;;;;;;;31.20;44.20;;;;;;5008747;28;20295;-76
2022/07/31 12:37:26;;;;;;;;;;;31.30;44.00;;;;;;5013990;28;19917;-78
2022/07/31 12:39:53;;;;;;;;;;;31.70;43.90;;;;;;5011021;28;19909;-77
2022/07/31 12:42:26;;;;;;;;;;;32.30;43.60;;;;;;5014036;28;19910;-77
2022/07/31 12:44:54;;;;;;;;;;;32.40;42.80;;;;;;5009539;28;19916;-77
2022/07/31 12:47:20;;;;;;;;;;;32.10;43.30;;;;;;5014479;28;19906;-76
2022/07/31 12:49:46;;;;;;;;;;;31.60;43.30;;;;;;5007461;28;20255;-79
2022/07/31 12:52:13;;;;;;;;;;;30.90;43.10;;;;;;5015022;28;19921;-83
2022/07/31 12:54:39;;;;;;;;;;;30.50;43.40;;;;;;5008538;28;19917;-77
2022/07/31 12:57:05;;;;;;;;;;;30.80;43.50;;;;;;5011144;28;19910;-78
2022/07/31 12:59:31;;;;;;;;;;;31.30;43.90;;;;;;5009171;28;20485;-77
2022/07/31 13:01:57;;;;;;;;;;;31.80;43.40;;;;;;5015044;28;19929;-77
2022/07/31 13:04:23;;;;;;;;;;;31.70;43.40;;;;;;5010552;28;20272;-76
2022/07/31 13:06:50;;;;;;;;;;;31.50;43.10;;;;;;5014872;28;19913;-77
2022/07/31 13:09:16;;;;;;;;;;;31.30;42.00;;;;;;5015099;28;19909;-80
2022/07/31 13:11:42;;;;;;;;;;;31.10;42.40;;;;;;5011558;28;20387;-78
2022/07/31 13:14:08;;;;;;;;;;;31.40;41.70;;;;;;5014906;28;19932;-82
2022/07/31 13:16:34;;;;;;;;;;;31.70;41.90;;;;;;5011078;28;20449;-80
2022/07/31 13:19:00;;;;;;;;;;;32.10;41.70;;;;;;5012609;28;20363;-81
2022/07/31 13:21:26;;;;;;;;;;;31.90;40.90;;;;;;5014900;28;19921;-79
2022/07/31 13:23:53;;;;;;;;;;;31.70;40.50;;;;;;5015838;28;19921;-79
2022/07/31 13:26:19;;;;;;;;;;;31.70;40.60;;;;;;5019243;28;20350;-79
2022/07/31 13:28:45;;;;;;;;;;;31.80;41.00;;;;;;5019933;28;19917;-81
2022/07/31 13:31:11;;;;;;;;;;;31.80;40.40;;;;;;5012372;28;20367;-83
2022/07/31 13:33:37;;;;;;;;;;;32.10;40.30;;;;;;5014145;28;20347;-80
2022/07/31 13:36:04;;;;;;;;;;;32.20;40.30;;;;;;4995564;28;19928;-79
2022/07/31 13:38:30;;;;;;;;;;;32.50;40.40;;;;;;5009534;28;20339;-78
2022/07/31 13:43:41;;;;;;;;;;;32.10;40.70;;;;;;5005352;28;19913;-79
2022/07/31 13:46:07;;;;;;;;;;;32.10;40.40;;;;;;5016434;28;19925;-76
2022/07/31 13:48:34;;;;;;;;;;;32.30;40.20;;;;;;5010316;28;20286;-78
2022/07/31 13:51:00;;;;;;;;;;;32.70;40.80;;;;;;5014421;28;19910;-78
2022/07/31 13:53:26;;;;;;;;;;;33.30;41.20;;;;;;5000885;28;19916;-79
2022/07/31 13:55:52;;;;;;;;;;;33.50;40.10;;;;;;5006225;28;19940;-78
2022/07/31 13:58:19;;;;;;;;;;;32.80;41.20;;;;;;5014184;28;19909;-78
2022/07/31 14:00:45;;;;;;;;;;;32.20;41.00;;;;;;5015966;28;19917;-77
2022/07/31 14:03:11;;;;;;;;;;;31.90;41.40;;;;;;5004268;28;19976;-77
2022/07/31 14:05:38;;;;;;;;;;;32.20;41.40;;;;;;5015299;28;19913;-77
2022/07/31 14:08:04;;;;;;;;;;;32.70;40.50;;;;;;5008467;28;19909;-76
2022/07/31 14:10:30;;;;;;;;;;;32.80;40.30;;;;;;5013447;28;19916;-77
2022/07/31 14:12:56;;;;;;;;;;;32.80;40.70;;;;;;5008920;28;19917;-77
2022/07/31 14:15:22;;;;;;;;;;;33.00;40.70;;;;;;5012675;28;20342;-78
2022/07/31 14:17:48;;;;;;;;;;;32.90;40.90;;;;;;5006269;28;19916;-74
2022/07/31 14:20:14;;;;;;;;;;;32.50;40.70;;;;;;5013548;28;19909;-84
2022/07/31 14:22:41;;;;;;;;;;;32.10;41.20;;;;;;5009322;28;19909;-75
2022/07/31 14:25:08;;;;;;;;;;;32.10;40.90;;;;;;5013248;28;20282;-76
2022/07/31 14:27:34;;;;;;;;;;;32.20;41.30;;;;;;5008358;28;19917;-76
2022/07/31 14:30:00;;;;;;;;;;;32.50;40.70;;;;;;4991328;28;20389;-75
2022/07/31 14:32:28;;;;;;;;;;;32.90;41.60;;;;;;5003506;28;20382;-79
2022/07/31 14:34:54;;;;;;;;;;;33.00;41.40;;;;;;5020076;28;19933;-76
2022/07/31 14:37:20;;;;;;;;;;;32.30;39.70;;;;;;5007966;28;19943;-78
2022/07/31 14:39:46;;;;;;;;;;;31.90;40.90;;;;;;5012954;28;20306;-77